Time;durP1;ratioP1;P1;durP2;ratioP2;P2;SDS_P1;SDS_P2;PMS_P1;PMS_P2;Temp;Humidity;BMP_temperature;BMP_pressure;BME280_temperature;BME280_humidity;BME280_pressure;Samples;Min_cycle;Max_cycle;Signal;HPM_P1;HPM_P2
2022/05/06 00:02:05;;;;;;;9.13;7.38;;;16.10;57.50;;;;;;4929888;29;20059;-77
2022/05/06 00:04:31;;;;;;;11.05;7.18;;;16.10;57.50;;;;;;4925219;29;20053;-76
2022/05/06 00:06:57;;;;;;;8.77;7.68;;;16.10;57.50;;;;;;4919786;29;20567;-76
2022/05/06 00:09:23;;;;;;;8.13;7.28;;;16.10;57.60;;;;;;4929860;29;20059;-77
2022/05/06 00:11:51;;;;;;;9.57;7.68;;;16.10;57.60;;;;;;4916369;29;20039;-76
2022/05/06 00:14:18;;;;;;;9.63;7.05;;;16.10;57.70;;;;;;4916194;29;20388;-75
2022/05/06 00:16:44;;;;;;;7.85;7.05;;;16.10;57.60;;;;;;4924551;29;20079;-76
2022/05/06 00:19:10;;;;;;;7.97;7.20;;;16.10;57.70;;;;;;4929535;29;20111;-75
2022/05/06 00:21:36;;;;;;;9.77;7.05;;;16.00;57.50;;;;;;4929609;29;20115;-77
2022/05/06 00:24:04;;;;;;;7.53;6.35;;;16.00;57.50;;;;;;4938781;29;20032;-77
2022/05/06 00:26:30;;;;;;;6.88;6.25;;;16.00;57.60;;;;;;4954730;28;20015;-75
2022/05/06 00:28:55;;;;;;;7.00;6.30;;;16.00;57.60;;;;;;4949866;28;20080;-75
2022/05/06 00:31:21;;;;;;;6.80;5.95;;;16.00;57.60;;;;;;4954047;28;20079;-75
2022/05/06 00:33:48;;;;;;;7.07;5.78;;;16.00;57.70;;;;;;4952714;29;20024;-76
2022/05/06 00:36:14;;;;;;;8.85;6.28;;;16.00;57.70;;;;;;4953062;29;20012;-77
2022/05/06 00:38:42;;;;;;;8.27;6.60;;;16.00;57.70;;;;;;4915213;29;20564;-77
2022/05/06 00:41:09;;;;;;;6.68;5.97;;;16.00;57.70;;;;;;4935915;29;20341;-77
2022/05/06 00:43:39;;;;;;;6.30;5.75;;;15.90;57.60;;;;;;4937276;29;20315;-76
2022/05/06 00:46:11;;;;;;;7.15;5.70;;;16.00;57.80;;;;;;4937200;29;20119;-76
2022/05/06 00:48:37;;;;;;;7.60;5.70;;;15.90;57.70;;;;;;4934481;29;20071;-77
2022/05/06 00:51:06;;;;;;;6.35;5.75;;;16.00;57.80;;;;;;4932857;29;20516;-77
2022/05/06 00:53:35;;;;;;;7.35;6.07;;;15.90;57.70;;;;;;4926389;29;20120;-75
2022/05/06 00:56:01;;;;;;;5.40;4.93;;;15.90;57.70;;;;;;4932210;29;20060;-76
2022/05/06 00:58:30;;;;;;;8.18;5.60;;;15.90;57.70;;;;;;4927765;29;20070;-77
2022/05/06 01:00:56;;;;;;;6.10;5.55;;;15.90;57.70;;;;;;4930446;29;20403;-76
2022/05/06 01:03:22;;;;;;;5.63;5.13;;;15.90;57.70;;;;;;4933825;29;20098;-76
2022/05/06 01:05:51;;;;;;;5.50;4.97;;;15.90;57.80;;;;;;4924386;29;20036;-75
2022/05/06 01:08:17;;;;;;;5.63;5.03;;;15.90;57.80;;;;;;4931769;29;20056;-75
2022/05/06 01:10:43;;;;;;;7.25;5.30;;;15.90;57.80;;;;;;4932235;29;20126;-75
2022/05/06 01:13:09;;;;;;;5.50;5.00;;;15.90;57.80;;;;;;4928870;29;20028;-76
2022/05/06 01:15:36;;;;;;;5.43;4.93;;;15.90;57.80;;;;;;4925806;29;20484;-76
2022/05/06 01:18:19;;;;;;;7.32;5.55;;;15.90;57.80;;;;;;4918071;29;20472;-76
2022/05/06 01:20:52;;;;;;;6.93;5.38;;;15.80;57.60;;;;;;4933219;29;20043;-76
2022/05/06 01:23:23;;;;;;;6.10;4.95;;;15.90;57.90;;;;;;4921897;29;20043;-76
2022/05/06 01:25:50;;;;;;;5.10;4.70;;;15.90;57.80;;;;;;4926016;29;20046;-76
2022/05/06 01:28:16;;;;;;;5.28;4.78;;;15.80;57.60;;;;;;4923766;29;20028;-77
2022/05/06 01:30:48;;;;;;;6.03;5.13;;;15.90;57.80;;;;;;4928004;29;20388;-77
2022/05/06 01:33:21;;;;;;;5.72;5.05;;;15.90;57.90;;;;;;4932582;29;20102;-77
2022/05/06 01:35:55;;;;;;;6.03;5.25;;;15.80;57.70;;;;;;4931808;29;20081;-76
2022/05/06 01:38:41;;;;;;;7.90;5.68;;;15.90;57.90;;;;;;4931779;29;20063;-76
2022/05/06 01:41:13;;;;;;;5.18;4.72;;;15.80;57.80;;;;;;4932032;29;20035;-77
2022/05/06 01:43:50;;;;;;;5.00;4.50;;;15.80;58.30;;;;;;4932383;29;20042;-77
2022/05/06 01:46:19;;;;;;;5.70;5.18;;;15.80;57.70;;;;;;4932110;29;20035;-77
2022/05/06 01:48:54;;;;;;;5.65;5.15;;;15.80;57.80;;;;;;4928622;29;20048;-77
2022/05/06 01:51:22;;;;;;;5.22;4.80;;;15.80;57.80;;;;;;4932506;29;20032;-75
2022/05/06 01:53:48;;;;;;;5.72;5.10;;;15.70;57.70;;;;;;4913567;29;20027;-75
2022/05/06 01:56:20;;;;;;;6.10;5.57;;;15.70;57.60;;;;;;4932387;29;20417;-76
2022/05/06 01:58:48;;;;;;;9.63;5.80;;;15.70;57.70;;;;;;4931142;29;20062;-76
2022/05/06 02:01:14;;;;;;;5.75;5.25;;;15.70;57.70;;;;;;4922862;29;20548;-77
2022/05/06 02:06:29;;;;;;;5.80;5.30;;;15.70;57.80;;;;;;4932240;29;20067;-76
2022/05/06 02:09:04;;;;;;;5.05;4.65;;;15.70;57.70;;;;;;4931998;29;20453;-76
2022/05/06 02:11:41;;;;;;;6.65;5.15;;;15.70;57.80;;;;;;4925387;29;20047;-77
2022/05/06 02:14:07;;;;;;;6.45;5.07;;;15.70;58.30;;;;;;4922525;29;20024;-76
2022/05/06 02:16:43;;;;;;;5.32;4.82;;;15.60;57.60;;;;;;4932530;29;20032;-76
2022/05/06 02:19:20;;;;;;;5.65;5.15;;;15.70;57.80;;;;;;4928501;29;20047;-76
2022/05/06 02:22:11;;;;;;;5.35;4.53;;;15.70;57.80;;;;;;4931928;29;20103;-76
2022/05/06 02:24:48;;;;;;;5.10;4.60;;;15.70;57.70;;;;;;4917648;29;20035;-77
2022/05/06 02:27:41;;;;;;;6.70;5.70;;;15.70;57.70;;;;;;4915689;29;20424;-77
2022/05/06 02:33:13;;;;;;;5.68;4.78;;;15.60;57.50;;;;;;4927351;29;20479;-76
2022/05/06 02:35:43;;;;;;;5.03;4.63;;;15.60;57.50;;;;;;4916498;29;20046;-77
2022/05/06 02:38:11;;;;;;;4.82;4.38;;;15.60;57.50;;;;;;4931428;29;20027;-77
2022/05/06 02:40:39;;;;;;;5.15;4.65;;;15.60;57.50;;;;;;4918803;29;20032;-77
2022/05/06 02:43:07;;;;;;;5.50;4.75;;;15.60;57.50;;;;;;4931689;29;20425;-76
2022/05/06 02:45:36;;;;;;;4.90;4.32;;;15.60;57.60;;;;;;4926360;29;20108;-77
2022/05/06 02:48:03;;;;;;;5.32;4.38;;;15.60;57.60;;;;;;4931147;29;20169;-76
2022/05/06 02:50:32;;;;;;;5.15;4.18;;;15.60;57.60;;;;;;4930829;29;20031;-77
2022/05/06 02:52:59;;;;;;;5.10;4.60;;;15.60;57.60;;;;;;4921965;29;20066;-76
2022/05/06 02:55:25;;;;;;;5.22;4.40;;;15.60;57.60;;;;;;4917454;29;20449;-76
2022/05/06 02:57:55;;;;;;;4.57;4.18;;;15.60;57.60;;;;;;4924366;29;20872;-77
2022/05/06 03:00:21;;;;;;;4.50;4.10;;;15.50;57.40;;;;;;4919006;29;20483;-76
2022/05/06 03:02:47;;;;;;;5.68;4.68;;;15.60;57.60;;;;;;4930629;29;20039;-77
2022/05/06 03:05:14;;;;;;;5.05;3.97;;;15.50;57.40;;;;;;4930767;29;20035;-77
2022/05/06 03:07:41;;;;;;;4.53;3.92;;;15.50;57.40;;;;;;4931047;29;20035;-77
2022/05/06 03:10:09;;;;;;;6.43;4.20;;;15.50;57.50;;;;;;4937758;29;20063;-77
2022/05/06 03:12:37;;;;;;;4.57;4.18;;;15.50;57.40;;;;;;4920191;29;20063;-77
2022/05/06 03:15:10;;;;;;;7.28;4.85;;;15.50;57.50;;;;;;4928411;29;20095;-76
2022/05/06 03:17:41;;;;;;;4.43;4.03;;;15.50;57.50;;;;;;4923296;29;20513;-76
2022/05/06 03:20:08;;;;;;;4.25;3.85;;;15.50;57.50;;;;;;4923348;29;20102;-76
2022/05/06 03:22:42;;;;;;;4.57;3.45;;;15.50;57.50;;;;;;4932409;29;20035;-77
2022/05/06 03:25:11;;;;;;;5.13;4.30;;;15.40;57.90;;;;;;4934566;29;20035;-76
2022/05/06 03:30:25;;;;;;;4.25;3.70;;;15.40;57.40;;;;;;4929612;29;20357;-78
2022/05/06 03:32:55;;;;;;;6.20;3.28;;;15.40;57.40;;;;;;4940496;28;20024;-77
2022/05/06 03:35:22;;;;;;;5.90;3.70;;;15.40;57.40;;;;;;4941554;29;20042;-77
2022/05/06 03:37:49;;;;;;;7.47;4.28;;;15.30;57.30;;;;;;4931301;29;20032;-77
2022/05/06 03:40:15;;;;;;;6.25;3.58;;;15.30;57.40;;;;;;4931052;29;20510;-76
2022/05/06 03:42:43;;;;;;;4.78;3.80;;;15.30;57.40;;;;;;4931091;29;20055;-76
2022/05/06 03:45:10;;;;;;;4.00;3.15;;;15.30;57.40;;;;;;4930836;29;20123;-76
2022/05/06 03:47:37;;;;;;;4.60;3.63;;;15.30;57.40;;;;;;4930818;29;20044;-76
2022/05/06 03:52:50;;;;;;;4.43;3.50;;;15.30;57.40;;;;;;4920676;29;20260;-76
2022/05/06 03:55:17;;;;;;;3.58;3.03;;;15.20;57.30;;;;;;4930820;29;20063;-76
2022/05/06 03:57:45;;;;;;;4.30;3.08;;;15.20;57.30;;;;;;4927857;29;20059;-76
2022/05/06 04:00:13;;;;;;;3.70;2.63;;;15.20;57.30;;;;;;4901860;29;20127;-76
2022/05/06 04:02:46;;;;;;;4.47;3.42;;;15.20;57.30;;;;;;4930054;29;20107;-77
2022/05/06 04:05:20;;;;;;;6.55;3.08;;;15.20;57.30;;;;;;4926890;29;20502;-77
2022/05/06 04:07:47;;;;;;;4.82;3.20;;;15.20;57.40;;;;;;4927268;29;20038;-75
2022/05/06 04:10:13;;;;;;;3.15;2.85;;;15.20;57.40;;;;;;4910905;29;20083;-76
2022/05/06 04:12:39;;;;;;;4.03;3.28;;;15.20;57.30;;;;;;4929783;29;20078;-75
2022/05/06 04:15:08;;;;;;;4.82;3.38;;;15.20;57.30;;;;;;4915062;29;20038;-76
2022/05/06 04:17:36;;;;;;;3.60;3.30;;;15.20;57.30;;;;;;4928789;29;20063;-75
2022/05/06 04:25:35;;;;;;;4.38;3.20;;;15.10;57.20;;;;;;4929987;29;20095;-75
2022/05/06 04:28:02;;;;;;;5.57;3.17;;;15.10;57.10;;;;;;4925419;29;20044;-77
2022/05/06 04:30:28;;;;;;;3.17;2.80;;;15.10;57.20;;;;;;4912670;29;20066;-77
2022/05/06 04:33:04;;;;;;;3.85;2.40;;;15.10;57.20;;;;;;4923681;29;20084;-76
2022/05/06 04:35:33;;;;;;;4.90;3.70;;;15.10;57.20;;;;;;4925984;29;20051;-76
2022/05/06 04:37:59;;;;;;;5.43;3.88;;;15.10;57.30;;;;;;4930361;29;20067;-77
2022/05/06 04:40:28;;;;;;;4.60;2.78;;;15.10;57.30;;;;;;4925664;29;20102;-77
2022/05/06 04:42:54;;;;;;;4.40;3.47;;;15.10;57.30;;;;;;4954379;28;20027;-76
2022/05/06 04:45:22;;;;;;;3.97;2.65;;;15.10;57.30;;;;;;4950853;28;20043;-76
2022/05/06 04:48:00;;;;;;;3.17;2.88;;;15.10;57.30;;;;;;4953446;28;20058;-76
2022/05/06 04:50:27;;;;;;;3.33;2.95;;;15.00;57.10;;;;;;4946123;28;20039;-76
2022/05/06 04:52:53;;;;;;;5.57;2.78;;;15.00;57.10;;;;;;4950412;29;20023;-77
2022/05/06 04:55:20;;;;;;;2.92;2.67;;;15.00;57.20;;;;;;4921969;29;20043;-77
2022/05/06 04:57:47;;;;;;;3.65;2.85;;;15.00;57.20;;;;;;4929952;29;20044;-76
2022/05/06 05:00:13;;;;;;;3.08;2.80;;;15.00;57.20;;;;;;4930055;29;20036;-75
2022/05/06 05:02:44;;;;;;;3.65;2.78;;;15.00;57.20;;;;;;4926288;29;20362;-76
2022/05/06 05:05:10;;;;;;;5.13;3.00;;;15.00;57.10;;;;;;4918941;29;20043;-77
2022/05/06 05:07:36;;;;;;;7.32;3.63;;;15.00;57.10;;;;;;4919357;29;20063;-76
2022/05/06 05:10:03;;;;;;;3.60;2.92;;;15.00;57.10;;;;;;4920895;29;20036;-76
2022/05/06 05:12:31;;;;;;;3.67;3.00;;;15.00;57.10;;;;;;4922811;29;20032;-76
2022/05/06 05:14:57;;;;;;;2.97;2.53;;;15.10;57.20;;;;;;4927153;29;20118;-76
2022/05/06 05:17:28;;;;;;;2.95;2.65;;;15.10;57.20;;;;;;4911250;29;20568;-76
2022/05/06 05:19:55;;;;;;;2.92;2.63;;;15.10;57.20;;;;;;4923784;29;20343;-76
2022/05/06 05:22:22;;;;;;;3.15;2.75;;;15.10;57.20;;;;;;4915645;29;20051;-77
2022/05/06 05:24:51;;;;;;;3.00;2.67;;;15.10;57.20;;;;;;4931454;28;20145;-76
2022/05/06 05:27:17;;;;;;;3.10;2.85;;;15.20;57.30;;;;;;4916056;29;20032;-76
2022/05/06 05:29:44;;;;;;;4.50;2.75;;;15.10;57.10;;;;;;4912722;29;20056;-77
2022/05/06 05:32:12;;;;;;;3.08;2.75;;;15.10;57.10;;;;;;4903594;29;20095;-85
2022/05/06 05:34:43;;;;;;;3.17;2.60;;;15.20;57.20;;;;;;4914217;29;20040;-84
2022/05/06 05:37:11;;;;;;;3.75;2.90;;;15.20;57.20;;;;;;4942844;28;20577;-85
2022/05/06 05:39:37;;;;;;;3.65;3.17;;;15.20;57.20;;;;;;4931133;29;20074;-79
2022/05/06 05:42:07;;;;;;;5.03;2.85;;;15.20;57.10;;;;;;4915834;29;20432;-80
2022/05/06 05:50:09;;;;;;;4.70;3.28;;;15.20;56.80;;;;;;4921794;29;20027;-79
2022/05/06 05:52:35;;;;;;;2.63;2.15;;;15.20;56.70;;;;;;4930565;29;20039;-78
2022/05/06 05:55:01;;;;;;;3.88;2.47;;;15.20;56.60;;;;;;4913431;29;20055;-79
2022/05/06 05:57:27;;;;;;;4.95;2.80;;;15.30;56.70;;;;;;4929644;29;20076;-76
2022/05/06 05:59:53;;;;;;;7.20;2.78;;;15.30;56.70;;;;;;4956816;28;20074;-77
2022/05/06 06:02:21;;;;;;;5.72;2.97;;;15.40;57.10;;;;;;4948119;28;20062;-82
2022/05/06 06:04:50;;;;;;;3.58;3.03;;;15.40;56.80;;;;;;4951536;28;20055;-82
2022/05/06 06:07:18;;;;;;;3.47;2.60;;;15.40;56.60;;;;;;4929163;28;20031;-76
2022/05/06 06:09:50;;;;;;;4.72;3.17;;;15.40;56.40;;;;;;4943116;28;20039;-76
2022/05/06 06:12:17;;;;;;;5.22;2.88;;;15.50;56.70;;;;;;4950212;28;20015;-79
2022/05/06 06:14:45;;;;;;;3.72;2.42;;;15.50;58.00;;;;;;4947223;29;20051;-81
2022/05/06 06:17:11;;;;;;;2.95;2.65;;;15.60;57.90;;;;;;4920852;29;20032;-78
2022/05/06 06:19:38;;;;;;;3.60;2.28;;;15.80;58.20;;;;;;4932674;29;20280;-78
2022/05/06 06:22:04;;;;;;;3.55;2.38;;;15.80;58.10;;;;;;4931166;29;20403;-77
2022/05/06 06:24:45;;;;;;;2.85;2.15;;;15.90;58.10;;;;;;4930566;29;20043;-78
2022/05/06 06:27:11;;;;;;;6.75;2.72;;;16.00;58.00;;;;;;4923158;29;20028;-82
2022/05/06 06:29:37;;;;;;;3.05;1.98;;;16.10;58.00;;;;;;4922806;29;20044;-84
2022/05/06 06:32:05;;;;;;;2.30;2.10;;;16.20;58.00;;;;;;4911496;29;20027;-79
2022/05/06 06:34:31;;;;;;;3.28;2.45;;;16.20;57.80;;;;;;4906728;29;20035;-78
2022/05/06 06:36:57;;;;;;;5.25;2.92;;;16.30;57.80;;;;;;4916045;29;20042;-85
2022/05/06 06:39:23;;;;;;;3.58;2.60;;;16.30;57.60;;;;;;4908893;29;20055;-78
2022/05/06 06:41:51;;;;;;;2.75;2.50;;;16.40;57.70;;;;;;4922749;29;20126;-79
2022/05/06 06:44:21;;;;;;;2.58;2.17;;;16.50;57.60;;;;;;4914795;29;20397;-80
2022/05/06 06:47:08;;;;;;;;;;;16.60;57.50;;;;;;4915548;29;20051;-85
2022/05/06 06:49:49;;;;;;;2.70;2.50;;;16.60;57.10;;;;;;4928988;29;19914;-81
2022/05/06 06:52:41;;;;;;;2.50;2.30;;;16.80;57.30;;;;;;4929477;29;20059;-79
2022/05/06 06:55:08;;;;;;;3.00;2.70;;;16.80;57.00;;;;;;4929553;29;20492;-79
2022/05/06 06:57:34;;;;;;;3.10;2.45;;;16.90;57.00;;;;;;4931764;29;20071;-79
2022/05/06 07:00:00;;;;;;;2.63;2.42;;;16.90;56.80;;;;;;4931486;28;20059;-80
2022/05/06 07:02:26;;;;;;;2.75;2.30;;;17.00;56.80;;;;;;4930183;29;20039;-79
2022/05/06 07:04:52;;;;;;;2.72;2.50;;;17.10;56.90;;;;;;4930776;29;20082;-80
2022/05/06 07:12:47;;;;;;;2.65;2.00;;;17.40;56.70;;;;;;4924666;29;20024;-79
2022/05/06 07:15:12;;;;;;;3.05;2.45;;;17.50;56.60;;;;;;4930268;29;20110;-79
2022/05/06 07:17:38;;;;;;;3.63;2.30;;;17.60;56.50;;;;;;4923163;29;20082;-79
2022/05/06 07:20:05;;;;;;;3.05;2.60;;;17.60;56.30;;;;;;4926886;29;20051;-80
2022/05/06 07:22:30;;;;;;;3.20;2.53;;;17.70;56.20;;;;;;4928799;29;20036;-82
2022/05/06 07:24:56;;;;;;;2.40;2.17;;;17.90;56.40;;;;;;4926101;29;20465;-78
2022/05/06 07:27:23;;;;;;;2.42;2.22;;;17.90;56.10;;;;;;4930063;29;20604;-77
2022/05/06 07:29:49;;;;;;;2.50;2.30;;;18.10;56.20;;;;;;4924644;29;20418;-82
2022/05/06 07:32:15;;;;;;;3.28;2.20;;;18.20;56.00;;;;;;4928645;29;20087;-79
2022/05/06 07:34:41;;;;;;;2.65;1.98;;;18.30;55.80;;;;;;4929137;29;20600;-79
2022/05/06 07:37:07;;;;;;;2.70;2.50;;;18.50;55.90;;;;;;4930393;29;20070;-80
2022/05/06 07:39:33;;;;;;;2.55;2.35;;;18.60;55.80;;;;;;4930173;29;20055;-80
2022/05/06 07:41:59;;;;;;;3.03;1.92;;;18.80;55.70;;;;;;4929037;29;20040;-79
2022/05/06 07:44:25;;;;;;;2.63;2.42;;;19.00;55.70;;;;;;4926825;29;20555;-79
2022/05/06 07:46:50;;;;;;;1.92;1.83;;;19.10;55.40;;;;;;4926632;29;20047;-78
2022/05/06 07:49:16;;;;;;;3.30;2.63;;;19.40;55.60;;;;;;4929475;29;20532;-79
2022/05/06 07:51:43;;;;;;;3.00;2.17;;;19.60;55.40;;;;;;4930043;29;20670;-79
2022/05/06 07:54:09;;;;;;;2.25;2.15;;;19.80;55.20;;;;;;4928290;29;20456;-78
2022/05/06 07:56:35;;;;;;;2.58;2.00;;;19.90;55.00;;;;;;4928735;29;20528;-78
2022/05/06 07:59:01;;;;;;;4.38;2.47;;;20.00;54.80;;;;;;4928913;29;20059;-78
2022/05/06 08:06:56;;;;;;;2.97;2.47;;;20.10;54.70;;;;;;4929198;29;20048;-77
2022/05/06 08:09:22;;;;;;;2.38;2.20;;;20.20;54.80;;;;;;4925953;29;20500;-79
2022/05/06 08:11:48;;;;;;;2.05;1.85;;;20.20;54.60;;;;;;4923484;29;20035;-79
2022/05/06 08:14:16;;;;;;;2.92;2.20;;;20.20;54.30;;;;;;4926507;29;20759;-78
2022/05/06 08:16:43;;;;;;;2.42;2.15;;;20.30;54.30;;;;;;4928497;29;20119;-77
2022/05/06 08:19:09;;;;;;;2.13;1.98;;;20.40;54.20;;;;;;4916424;29;20051;-77
2022/05/06 08:21:36;;;;;;;1.75;1.65;;;20.60;54.30;;;;;;4927647;29;20126;-77
2022/05/06 08:24:02;;;;;;;3.20;2.17;;;20.80;54.20;;;;;;4928726;29;20039;-78
2022/05/06 08:26:29;;;;;;;2.83;1.90;;;21.00;54.20;;;;;;4930843;29;20038;-82
2022/05/06 08:28:55;;;;;;;2.42;2.20;;;21.20;54.00;;;;;;4925124;29;20068;-84
2022/05/06 08:31:21;;;;;;;2.67;2.13;;;21.40;54.00;;;;;;4926652;29;20043;-82
2022/05/06 08:33:47;;;;;;;2.20;1.98;;;21.60;53.90;;;;;;4920398;29;20039;-79
2022/05/06 08:36:14;;;;;;;2.80;2.40;;;21.80;53.80;;;;;;4928902;29;20038;-78
2022/05/06 08:38:40;;;;;;;2.00;1.90;;;22.00;53.80;;;;;;4920173;29;20075;-76
2022/05/06 08:41:06;;;;;;;2.65;1.95;;;22.10;53.60;;;;;;4926164;29;20047;-78
2022/05/06 08:43:32;;;;;;;5.07;2.33;;;22.20;53.50;;;;;;4922692;29;20407;-78
2022/05/06 08:51:37;;;;;;;2.97;2.22;;;22.70;53.20;;;;;;4916534;29;20541;-77
2022/05/06 08:54:03;;;;;;;2.58;2.33;;;22.70;53.00;;;;;;4928721;29;20035;-77
2022/05/06 08:56:31;;;;;;;2.63;2.42;;;22.80;53.00;;;;;;4925939;29;20206;-80
2022/05/06 08:58:58;;;;;;;2.42;2.22;;;23.00;53.10;;;;;;4928315;29;20086;-78
2022/05/06 09:01:24;;;;;;;2.25;2.00;;;23.10;52.90;;;;;;4931145;29;20546;-77
2022/05/06 09:03:50;;;;;;;2.55;1.90;;;23.30;52.80;;;;;;4931752;29;20082;-79
2022/05/06 09:06:22;;;;;;;2.08;1.95;;;23.40;52.70;;;;;;4932487;29;20122;-78
2022/05/06 09:08:51;;;;;;;2.53;2.33;;;23.50;52.50;;;;;;4925688;29;20054;-79
2022/05/06 09:12:40;;;;;;;2.38;2.17;;;23.70;52.70;;;;;;4931877;29;20027;-77
2022/05/06 09:14:06;;;;;;;2.22;1.92;;;23.80;52.60;;;;;;4926647;29;20042;-77
2022/05/06 09:16:42;;;;;;;2.58;2.35;;;23.90;52.50;;;;;;4918564;29;20035;-85
2022/05/06 09:19:17;;;;;;;2.10;1.90;;;24.00;52.50;;;;;;4920129;29;20040;-87
2022/05/06 09:22:14;;;;;;;1.73;1.63;;;24.00;52.80;;;;;;4931706;29;20046;-84
2022/05/06 09:24:50;;;;;;;2.45;2.30;;;24.10;52.20;;;;;;4933630;29;20032;-83
2022/05/06 09:27:21;;;;;;;1.90;1.80;;;24.10;52.20;;;;;;4934483;29;20133;-83
2022/05/06 09:29:49;;;;;;;2.15;1.85;;;24.10;52.20;;;;;;4937281;29;20034;-83
2022/05/06 09:32:24;;;;;;;2.97;1.73;;;24.20;52.20;;;;;;4954966;29;20038;-76
2022/05/06 09:35:10;;;;;;;1.70;1.60;;;24.30;52.80;;;;;;4955459;28;20047;-79
2022/05/06 09:37:47;;;;;;;2.17;2.08;;;24.30;51.90;;;;;;4940544;29;20028;-81
2022/05/06 09:40:19;;;;;;;3.72;2.13;;;24.40;51.90;;;;;;4955650;28;20032;-79
2022/05/06 09:42:55;;;;;;;1.90;1.80;;;24.40;51.90;;;;;;4954338;29;20079;-79
2022/05/06 09:45:30;;;;;;;3.35;2.05;;;24.40;51.80;;;;;;4943538;29;20099;-79
2022/05/06 09:48:01;;;;;;;2.70;1.90;;;24.50;51.70;;;;;;4950592;29;20210;-79
2022/05/06 09:50:47;;;;;;;2.83;1.77;;;24.50;51.70;;;;;;4947051;29;20039;-79
2022/05/06 09:53:15;;;;;;;2.50;2.20;;;24.60;51.50;;;;;;4937878;29;20054;-77
2022/05/06 09:55:46;;;;;;;2.30;2.10;;;24.60;51.60;;;;;;4938425;29;20767;-82
2022/05/06 09:58:14;;;;;;;3.30;1.80;;;24.70;51.60;;;;;;4934304;29;20365;-79
2022/05/06 10:00:40;;;;;;;2.25;2.05;;;24.70;51.60;;;;;;4937545;29;20087;-82
2022/05/06 10:03:09;;;;;;;2.95;1.90;;;24.70;51.40;;;;;;4936081;29;20031;-82
2022/05/06 10:05:36;;;;;;;2.28;2.08;;;24.80;51.50;;;;;;4935159;29;20083;-79
2022/05/06 10:08:15;;;;;;;1.75;1.65;;;24.80;51.30;;;;;;4937342;29;20027;-76
2022/05/06 10:10:47;;;;;;;2.05;1.80;;;24.90;51.30;;;;;;4935511;29;20032;-76
2022/05/06 10:13:19;;;;;;;2.38;1.77;;;24.80;51.20;;;;;;4931114;29;20083;-75
2022/05/06 10:15:51;;;;;;;3.22;2.33;;;24.80;51.20;;;;;;4928624;29;20031;-75
2022/05/06 10:18:38;;;;;;;2.15;1.50;;;24.80;51.30;;;;;;4934823;29;20036;-74
2022/05/06 10:21:09;;;;;;;2.08;1.80;;;24.70;51.00;;;;;;4933868;29;20055;-76
2022/05/06 10:23:52;;;;;;;1.60;1.50;;;24.80;51.40;;;;;;4933396;29;20164;-75
2022/05/06 10:26:34;;;;;;;1.83;1.58;;;24.90;51.30;;;;;;4933702;29;20031;-75
2022/05/06 10:34:32;;;;;;;1.90;1.23;;;25.20;51.30;;;;;;4932315;29;20035;-75
2022/05/06 10:37:01;;;;;;;1.67;1.38;;;25.30;51.10;;;;;;4931177;29;20032;-75
2022/05/06 10:39:33;;;;;;;2.63;1.27;;;25.40;50.90;;;;;;4919710;29;20115;-75
2022/05/06 10:42:14;;;;;;;1.70;1.60;;;25.40;50.70;;;;;;4936273;29;20047;-77
2022/05/06 10:44:50;;;;;;;3.33;1.45;;;25.50;50.60;;;;;;4921291;29;20278;-74
2022/05/06 10:47:16;;;;;;;1.90;1.30;;;25.60;50.50;;;;;;4933840;29;20722;-76
2022/05/06 10:49:52;;;;;;;1.58;1.33;;;25.70;50.50;;;;;;4931088;29;20119;-75
2022/05/06 10:52:26;;;;;;;1.58;1.40;;;25.80;50.40;;;;;;4932594;29;20031;-75
2022/05/06 10:54:58;;;;;;;1.83;1.33;;;25.80;50.30;;;;;;4917790;29;20043;-74
2022/05/06 10:57:30;;;;;;;1.83;1.45;;;25.90;50.30;;;;;;4930804;29;20163;-77
2022/05/06 11:00:04;;;;;;;1.33;1.20;;;25.90;50.20;;;;;;4928899;29;20495;-76
2022/05/06 11:02:32;;;;;;;2.90;1.20;;;25.90;50.20;;;;;;4936089;29;20028;-78
2022/05/06 11:04:59;;;;;;;1.65;1.20;;;26.00;50.20;;;;;;4931210;29;20074;-77
2022/05/06 11:07:26;;;;;;;2.28;1.23;;;26.20;50.10;;;;;;4917895;29;20515;-77
2022/05/06 11:09:52;;;;;;;1.85;1.13;;;26.30;50.00;;;;;;4931363;29;20036;-75
2022/05/06 11:12:35;;;;;;;3.22;1.20;;;26.30;49.80;;;;;;4933070;29;20146;-77
2022/05/06 11:15:03;;;;;;;2.83;1.30;;;26.50;49.70;;;;;;4929960;29;20477;-76
2022/05/06 11:17:33;;;;;;;1.38;1.00;;;26.60;49.60;;;;;;4941396;29;20373;-78
2022/05/06 11:20:23;;;;;;;1.08;0.90;;;26.80;49.40;;;;;;4930184;29;20387;-78
2022/05/06 11:23:06;;;;;;;1.13;0.88;;;27.00;49.20;;;;;;4929624;29;20518;-77
2022/05/06 11:25:33;;;;;;;;;;;27.10;49.00;;;;;;4931563;29;20527;-76
2022/05/06 11:28:02;;;;;;;1.33;0.80;;;27.30;48.90;;;;;;4929755;29;20211;-76
2022/05/06 11:30:32;;;;;;;1.35;0.88;;;27.30;48.80;;;;;;4926398;29;20075;-76
2022/05/06 11:33:00;;;;;;;2.20;0.75;;;27.30;48.50;;;;;;4921275;29;20035;-75
2022/05/06 11:35:36;;;;;;;1.83;1.08;;;27.40;49.10;;;;;;4933089;29;20122;-74
2022/05/06 11:38:03;;;;;;;1.40;1.02;;;27.40;48.20;;;;;;4928353;28;20031;-74
2022/05/06 11:42:57;;;;;;;1.30;0.73;;;27.80;47.90;;;;;;4928893;29;20057;-74
2022/05/06 11:48:09;;;;;;;2.90;0.70;;;28.00;47.60;;;;;;4928840;29;20379;-75
2022/05/06 11:50:37;;;;;;;0.70;0.63;;;28.00;47.50;;;;;;4929086;29;20211;-75
2022/05/06 11:53:09;;;;;;;1.00;0.88;;;28.00;47.40;;;;;;4925136;29;20036;-77
2022/05/06 11:55:36;;;;;;;1.15;0.80;;;28.10;47.30;;;;;;4927710;29;20122;-75
2022/05/06 11:58:04;;;;;;;1.55;0.88;;;28.20;47.30;;;;;;4929463;29;20046;-78
2022/05/06 12:00:31;;;;;;;1.95;0.80;;;28.30;47.10;;;;;;4928484;29;20044;-76
2022/05/06 12:03:02;;;;;;;1.02;0.70;;;28.40;47.00;;;;;;4927052;29;20453;-77
2022/05/06 12:05:28;;;;;;;1.05;0.95;;;28.50;46.60;;;;;;4937443;29;20035;-76
2022/05/06 12:07:54;;;;;;;1.85;0.85;;;28.60;46.60;;;;;;4910208;29;20032;-76
2022/05/06 12:10:25;;;;;;;1.27;0.98;;;28.70;46.40;;;;;;4933772;29;20031;-77
2022/05/06 12:13:10;;;;;;;0.80;0.57;;;28.70;46.10;;;;;;4931104;29;20100;-81
2022/05/06 12:15:41;;;;;;;0.90;0.50;;;28.70;46.00;;;;;;4920451;29;20039;-82
2022/05/06 12:18:19;;;;;;;2.17;0.70;;;28.70;46.10;;;;;;4928725;29;20043;-73
2022/05/06 12:20:48;;;;;;;1.52;0.88;;;28.80;45.90;;;;;;4924580;29;20047;-74
2022/05/06 12:23:15;;;;;;;0.90;0.80;;;28.90;46.00;;;;;;4927393;29;20059;-74
2022/05/06 12:25:53;;;;;;;1.60;0.82;;;28.90;45.80;;;;;;4924205;29;20176;-77
2022/05/06 12:28:20;;;;;;;0.95;0.80;;;29.20;45.60;;;;;;4929413;29;20142;-76
2022/05/06 12:30:46;;;;;;;0.77;0.75;;;29.30;45.50;;;;;;4925776;29;20035;-76
2022/05/06 12:33:14;;;;;;;1.85;0.80;;;29.50;45.30;;;;;;4920237;29;20059;-74
2022/05/06 12:36:00;;;;;;;0.80;0.73;;;29.50;45.10;;;;;;4928503;29;20043;-77
2022/05/06 12:38:47;;;;;;;0.88;0.55;;;29.60;44.90;;;;;;4938114;28;20039;-76
2022/05/06 12:41:23;;;;;;;1.75;0.90;;;29.70;44.90;;;;;;4926323;29;20048;-75
2022/05/06 12:43:50;;;;;;;2.65;0.75;;;29.70;44.90;;;;;;4930839;29;20345;-75
2022/05/06 12:46:28;;;;;;;1.40;0.68;;;29.80;45.00;;;;;;4930861;29;20496;-76
2022/05/06 12:51:42;;;;;;;1.85;0.63;;;29.90;44.80;;;;;;4929913;29;20047;-84
2022/05/06 12:54:09;;;;;;;1.20;0.52;;;30.00;44.60;;;;;;4932548;29;20570;-85
2022/05/06 12:56:35;;;;;;;1.20;0.82;;;30.20;44.50;;;;;;4929957;29;20036;-82
2022/05/06 12:59:02;;;;;;;1.27;0.70;;;30.30;44.30;;;;;;4934052;29;20087;-85
2022/05/06 13:01:29;;;;;;;1.35;0.80;;;30.30;44.10;;;;;;4927965;29;20352;-85
2022/05/06 13:03:55;;;;;;;0.93;0.70;;;30.30;44.00;;;;;;4931387;29;20512;-88
2022/05/06 13:06:21;;;;;;;2.83;1.23;;;30.20;44.00;;;;;;4918680;29;20526;-86
2022/05/06 13:08:47;;;;;;;1.35;0.68;;;30.10;44.10;;;;;;4915750;29;20118;-83
2022/05/06 13:11:13;;;;;;;1.10;0.60;;;29.90;44.10;;;;;;4928652;29;20044;-76
2022/05/06 13:13:40;;;;;;;1.40;0.55;;;29.80;44.30;;;;;;4915895;29;20040;-76
2022/05/06 13:16:06;;;;;;;1.60;0.60;;;29.80;44.40;;;;;;4919350;29;20058;-77
2022/05/06 13:18:32;;;;;;;1.92;0.70;;;29.90;44.40;;;;;;4924393;29;20024;-77
2022/05/06 13:20:58;;;;;;;1.27;1.02;;;30.00;44.20;;;;;;4925105;29;20141;-76
2022/05/06 13:23:24;;;;;;;0.63;0.60;;;30.10;44.10;;;;;;4929458;29;20024;-76
2022/05/06 13:25:50;;;;;;;0.63;0.63;;;30.20;44.00;;;;;;4928758;29;20060;-80
2022/05/06 13:28:16;;;;;;;0.70;0.50;;;30.30;44.00;;;;;;4929564;29;20605;-80
2022/05/06 13:30:42;;;;;;;0.60;0.55;;;30.50;43.80;;;;;;4929126;29;20179;-78
2022/05/06 13:33:08;;;;;;;2.22;0.75;;;30.60;43.50;;;;;;4914759;29;20119;-78
2022/05/06 13:35:34;;;;;;;0.55;0.50;;;30.80;43.40;;;;;;4927887;29;20073;-77
2022/05/06 13:38:00;;;;;;;0.88;0.50;;;30.90;43.20;;;;;;4922642;29;20323;-77
2022/05/06 13:40:26;;;;;;;0.68;0.40;;;31.00;43.10;;;;;;4929200;29;20483;-76
2022/05/06 13:42:52;;;;;;;2.03;0.65;;;31.00;42.90;;;;;;4925454;29;20504;-77
2022/05/06 13:45:18;;;;;;;0.60;0.50;;;31.00;42.80;;;;;;4928414;29;20051;-77
2022/05/06 13:47:44;;;;;;;0.90;0.40;;;30.90;42.80;;;;;;4931847;29;20058;-77
2022/05/06 13:50:11;;;;;;;0.80;0.80;;;30.80;42.80;;;;;;4918146;29;20031;-75
2022/05/06 13:52:37;;;;;;;1.27;0.50;;;30.70;42.90;;;;;;4931426;29;20042;-75